createdAt,value
2018-01-25T00:02:37.443Z,31.52
2018-01-25T00:17:37.522Z,34.60
2018-01-25T00:32:36.266Z,30.08
2018-01-25T00:47:37.433Z,31.12
2018-01-25T01:02:37.193Z,35.95
2018-01-25T01:17:34.579Z,38.65
2018-01-25T01:32:34.879Z,44.15
2018-01-25T01:47:34.932Z,30.40
2018-01-25T02:02:36.629Z,32.72
2018-01-25T02:17:42.280Z,35.40
2018-01-25T02:32:36.730Z,33.97
2018-01-25T02:47:37.681Z,29.33
2018-01-25T03:02:37.104Z,29.58
2018-01-25T03:17:34.959Z,25.88
2018-01-25T03:32:36.984Z,25.08
2018-01-25T03:47:39.288Z,24.15
2018-01-25T04:02:37.217Z,34.28
2018-01-25T04:17:37.488Z,25.27
2018-01-25T04:32:37.105Z,26.40
2018-01-25T05:02:35.070Z,32.97
2018-01-25T05:32:37.923Z,26.15
2018-01-25T05:47:36.748Z,35.55
2018-01-25T06:02:34.028Z,38.20
2018-01-25T06:17:36.460Z,33.40
2018-01-25T06:32:35.108Z,39.33
2018-01-25T06:47:40.680Z,46.75
2018-01-25T07:02:38.963Z,45.53
2018-01-25T07:17:36.411Z,46.00
2018-01-25T07:32:34.839Z,49.47
2018-01-25T07:47:38.239Z,50.43
2018-01-25T08:02:34.405Z,49.80
2018-01-25T08:17:35.159Z,52.60
2018-01-25T08:32:35.051Z,75.40
2018-01-25T08:47:33.714Z,66.90
2018-01-25T09:02:37.426Z,78.33
2018-01-25T09:17:34.047Z,79.00
2018-01-25T09:32:36.468Z,71.70
2018-01-25T09:47:34.707Z,76.93
2018-01-25T10:02:48.565Z,91.70
2018-01-25T10:17:40.120Z,93.60
2018-01-25T10:32:34.436Z,95.80
2018-01-25T10:47:34.829Z,88.40
2018-01-25T11:02:34.804Z,85.50
2018-01-25T11:17:36.723Z,72.03
2018-01-25T11:32:46.206Z,65.73
2018-01-25T11:47:35.413Z,57.90
2018-01-25T12:02:35.968Z,55.07
2018-01-25T12:17:34.948Z,49.83
2018-01-25T12:32:34.138Z,55.07
2018-01-25T12:47:35.508Z,51.57
2018-01-25T13:02:35.220Z,46.07
2018-01-25T13:17:35.400Z,44.67
2018-01-25T13:32:39.559Z,42.87
2018-01-25T13:47:34.713Z,54.03
2018-01-25T14:02:36.452Z,46.90
2018-01-25T14:17:35.379Z,44.67
2018-01-25T14:32:35.225Z,43.37
2018-01-25T14:47:34.697Z,55.47
2018-01-25T15:02:37.940Z,55.73
2018-01-25T15:17:35.661Z,56.07
2018-01-25T15:32:36.708Z,63.83
2018-01-25T15:47:41.906Z,81.27
2018-01-25T16:02:34.814Z,84.50
2018-01-25T16:17:34.734Z,93.37
2018-01-25T16:32:38.023Z,84.37
2018-01-25T16:47:37.788Z,90.17
2018-01-25T17:02:38.012Z,94.07
2018-01-25T17:17:36.171Z,92.30
2018-01-25T17:32:40.864Z,105.10
2018-01-25T17:47:37.486Z,132.17
2018-01-25T18:02:39.758Z,127.47
2018-01-25T18:17:36.142Z,102.20
